Home > Products > Valid Products > TAF

000
FTUS41 KPHI 011904 AAC
TAFILG
TAF AMD
KILG 011904Z 0119/0218 16008KT 3SM -FZRA OVC008
     FM020500 23005KT 4SM BR OVC010
     FM020900 28007KT 6SM BR OVC040
     FM021200 31010KT P6SM SCT040 BKN200=



000
FTUS41 KPHI 011904 AAC
TAFMIV
TAF AMD
KMIV 011904Z 0119/0218 VRB04KT 2SM -SNPL OVC012
     FM012100 VRB03KT 4SM -FZRA BR OVC010
     FM020300 VRB03KT 1SM RA OVC006
     FM020600 23005KT 4SM BR OVC008
     FM020800 27007KT 6SM BR OVC012
     FM021000 29008KT P6SM OVC040
     FM021300 31012KT P6SM SCT040 BKN200=



000
FTUS41 KPHI 011903 AAB
TAFPHL
TAF AMD
KPHL 011903Z 0119/0224 20003KT 3SM -PL OVC012
     FM012000 19008KT 2SM -FZRAPL OVC010
     FM020600 24005KT 4SM BR OVC007
     FM021000 31010KT P6SM OVC040
     FM021400 30014G24KT P6SM SCT040 BKN250
     FM022300 30010KT P6SM SCT250=



000
FTUS41 KPHI 011901 AAD
TAFPNE
TAF AMD
KPNE 011901Z 0119/0218 20007KT 3SM -PL OVC020
     FM012100 18005KT 2SM -FZRAPL OVC010
     FM020600 24005KT 4SM BR OVC006
     FM021000 31010KT P6SM OVC040
     FM021400 30014G24KT P6SM SCT040 BKN250=



000
FTUS41 KPHI 011900 AAC
TAFPNE
TAF AMD
KPNE 011900Z 0119/0218 20007KT 2SM -PL OVC020
     FM012100 18005KT 2SM -FZRAPL OVC010
     FM020600 24005KT 4SM BR OVC006
     FM021000 31010KT P6SM OVC040
     FM021400 30014G24KT P6SM SCT040 BKN250=



000
FTUS41 KPHI 011852 AAB
TAFMIV
TAF AMD
KMIV 011852Z 0119/0218 VRB04KT 3SM -SNPL OVC009
     FM012100 VRB03KT 4SM -FZRA BR OVC010
     FM020300 VRB03KT 1SM RA OVC006
     FM020600 23005KT 4SM BR OVC008
     FM020800 27007KT 6SM BR OVC012
     FM021000 29008KT P6SM OVC040
     FM021300 31012KT P6SM SCT040 BKN200=



000
FTUS41 KPHI 011851 AAB
TAFILG
TAF AMD
KILG 011851Z 0119/0218 16008KT 2SM -FZRAPL OVC035
     FM020500 23005KT 4SM BR OVC012
     FM020900 28007KT 6SM BR OVC040
     FM021200 31010KT P6SM SCT040 BKN200=



000
FTUS41 KPHI 011837 AAA
TAFILG
TAF AMD
KILG 011837Z 0119/0218 17010KT 1 1/2SM -PL BKN025 OVC040
     FM012000 19008KT 2SM -FZRAPL OVC012
     FM020500 23005KT 4SM BR OVC006
     FM020900 28007KT 6SM BR OVC040
     FM021200 31010KT P6SM SCT040 BKN200=



000
FTUS41 KPHI 011836 AAB
TAFPNE
TAF AMD
KPNE 011836Z 0119/0218 20007KT 2SM -SNPL OVC020
     FM012100 18005KT 2SM -FZRAPL OVC010
     FM020600 24005KT 4SM BR OVC006
     FM021000 31010KT P6SM OVC040
     FM021400 30014G24KT P6SM SCT040 BKN250=



000
FTUS41 KPHI 011835 AAA
TAFTTN
TAF AMD
KTTN 011835Z 0119/0218 20009KT 3/4SM -SN OVC015
     FM012200 14003KT 1SM -FZRAPL OVC005
     FM020600 23005KT 3SM BR OVC008
     FM020800 27007KT 6SM BR OVC012
     FM021000 31010KT P6SM OVC035=



000
FTUS41 KPHI 011834 AAA
TAFMIV
TAF AMD
KMIV 011834Z 0119/0218 VRB04KT 4SM -SNPL OVC012
     FM012100 VRB03KT 4SM -FZRA BR OVC010
     FM020300 VRB03KT 1SM RA OVC006
     FM020600 23005KT 4SM BR OVC008
     FM020800 27007KT 6SM BR OVC012
     FM021000 29008KT P6SM OVC040
     FM021300 31012KT P6SM SCT040 BKN200=



000
FTUS41 KPHI 011833 AAA
TAFACY
TAF AMD
KACY 011833Z 0119/0218 18003KT 3SM -SNPL OVC020
     FM012100 VRB03KT 4SM -FZRA BR OVC012
     FM020300 VRB03KT 1SM RA OVC006
     FM020600 23005KT 4SM BR OVC008
     FM020800 27007KT 6SM BR OVC012
     FM021000 29008KT P6SM OVC040
     FM021400 31015KT P6SM SCT040 BKN200=



000
FTUS41 KPHI 011800 AAA
TAFPHL
TAF AMD
KPHL 011800Z 0118/0224 19008KT 2SM -FZRAPL OVC012
     FM020600 24005KT 4SM BR OVC006
     FM021000 31010KT P6SM OVC040
     FM021400 30014G24KT P6SM SCT040 BKN250
     FM022300 30010KT P6SM SCT250=



000
FTUS41 KPHI 011758 AAA
TAFPNE
TAF AMD
KPNE 011758Z 0118/0218 20007KT 2SM -SN BKN012 OVC025
     FM012100 18005KT 2SM -FZRAPL OVC010
     FM020600 24005KT 4SM BR OVC006
     FM021000 31010KT P6SM OVC040
     FM021400 30014G24KT P6SM SCT040 BKN250=



000
FTUS41 KPHI 011756 AAA
TAFRDG
TAF AMD
KRDG 011756Z 0118/0218 19005KT 1SM -SN BR OVC010
     FM012300 VRB02KT 2SM -FZRAPL OVC006
     FM020600 25002KT 3SM BR OVC005
     FM020900 31006KT P6SM OVC050
     FM021500 32012KT P6SM SCT250=



000
FTUS41 KPHI 011756 AAA
TAFRDG
TAF AMD
KRDG 011756Z 0118/0218 19005KT 1SM -SN BR OVC010
     FM012300 VRB02KT 2SM -FZRAPL OVC006
     FM020600 25002KT 3SM BR OVC005
     FM020900 31006KT P6SM OVC050
     FM021500 32012KT P6SM SCT250=



000
FTUS41 KPHI 011720
TAFRDG
TAF
KRDG 011720Z 0118/0218 16005KT 3/4SM -SN BR OVC010
     FM012300 VRB02KT 2SM -FZRAPL OVC006
     FM020600 25002KT 3SM BR OVC005
     FM020900 31006KT P6SM OVC050
     FM021500 32012KT P6SM SCT250=



000
FTUS41 KPHI 011720
TAFRDG
TAF
KRDG 011720Z 0118/0218 16005KT 3/4SM -SN BR OVC010
     FM012300 VRB02KT 2SM -FZRAPL OVC006
     FM020600 25002KT 3SM BR OVC005
     FM020900 31006KT P6SM OVC050
     FM021500 32012KT P6SM SCT250=



000
FTUS41 KPHI 011720
TAFABE
TAF
KABE 011720Z 0118/0218 20005KT 1SM -SN BR OVC015
     FM020000 VRB02KT 2SM -FZRAPL OVC005
     FM020600 25002KT 3SM BR OVC004
     FM021000 31006KT P6SM OVC050
     FM021500 32012KT P6SM SCT250=



000
FTUS41 KPHI 011720
TAFTTN
TAF
KTTN 011720Z 0118/0218 20009KT 4SM -SN OVC015
     FM012200 14003KT 1SM -FZRAPL OVC005
     FM020600 23005KT 3SM BR OVC008
     FM020800 27007KT 6SM BR OVC012
     FM021000 31010KT P6SM OVC035=



000
FTUS41 KPHI 011720
TAFACY
TAF
KACY 011720Z 0118/0218 18003KT 2SM -SNPL OVC025
     FM012100 VRB03KT 4SM -FZRA BR OVC012
     FM020300 VRB03KT 1SM RA OVC006
     FM020600 23005KT 4SM BR OVC008
     FM020800 27007KT 6SM BR OVC012
     FM021000 29008KT P6SM OVC040
     FM021400 31015KT P6SM SCT040 BKN200=



000
FTUS41 KPHI 011720
TAFPNE
TAF
KPNE 011720Z 0118/0218 20010KT 1SM -SN BKN012 OVC025
     FM012100 18005KT 2SM -FZRAPL OVC006
     FM020600 24005KT 4SM BR OVC006
     FM021000 31010KT P6SM OVC040
     FM021400 30014G24KT P6SM SCT040 BKN250=



000
FTUS41 KPHI 011720
TAFMIV
TAF
KMIV 011720Z 0118/0218 VRB04KT 2SM -SNPL OVC025
     FM012100 VRB03KT 4SM -FZRA BR OVC012
     FM020300 VRB03KT 1SM RA OVC006
     FM020600 23005KT 4SM BR OVC008
     FM020800 27007KT 6SM BR OVC012
     FM021000 29008KT P6SM OVC040
     FM021300 31012KT P6SM SCT040 BKN200=



000
FTUS41 KPHI 011720
TAFPHL
TAF
KPHL 011720Z 0118/0224 18008KT 1SM -SN BKN012 OVC025
     FM012000 18005KT 2SM -FZRAPL OVC006
     FM020600 24005KT 4SM BR OVC006
     FM021000 31010KT P6SM OVC040
     FM021400 30014G24KT P6SM SCT040 BKN250
     FM022300 30010KT P6SM SCT250=



000
FTUS41 KPHI 011720
TAFILG
TAF
KILG 011720Z 0118/0218 17010KT 5SM -FZRA BKN012 OVC025
     FM012000 19008KT 1SM -FZRAPL OVC006
     FM020500 23005KT 4SM BR OVC006
     FM020900 28007KT 6SM BR OVC040
     FM021200 31010KT P6SM SCT040 BKN200=



000
FTUS41 KPHI 011617 AAD
TAFMIV
TAF AMD
KMIV 011617Z 0116/0212 15004KT 2SM -SN BKN020 OVC040
     FM011800 VRB04KT 1SM -FZRAPL BR OVC010
     FM020300 VRB03KT 1SM RA OVC005
     FM020700 23005KT 4SM BR OVC008
     FM020900 27007KT 6SM BR OVC015
     FM021100 31010KT P6SM OVC035=



000
FTUS41 KPHI 011617 AAC
TAFPHL
TAF AMD
KPHL 011617Z 0116/0218 19011KT 1SM -SN BKN020 OVC050
     FM012100 18005KT 1SM -FZRAPL OVC006
     FM020600 23005KT 4SM BR OVC008
     FM020800 27007KT 6SM BR OVC015
     FM021000 31010KT P6SM OVC035
     FM021400 30014G24KT P6SM BKN035=



000
FTUS41 KPHI 011617 AAD
TAFMIV
TAF AMD
KMIV 011617Z 0116/0212 15004KT 2SM -SN BKN020 OVC040
     FM011800 VRB04KT 1SM -FZRAPL BR OVC010
     FM020300 VRB03KT 1SM RA OVC005
     FM020700 23005KT 4SM BR OVC008
     FM020900 27007KT 6SM BR OVC015
     FM021100 31010KT P6SM OVC035=



000
FTUS41 KPHI 011617 AAC
TAFPHL
TAF AMD
KPHL 011617Z 0116/0218 19011KT 1SM -SN BKN020 OVC050
     FM012100 18005KT 1SM -FZRAPL OVC006
     FM020600 23005KT 4SM BR OVC008
     FM020800 27007KT 6SM BR OVC015
     FM021000 31010KT P6SM OVC035
     FM021400 30014G24KT P6SM BKN035=



000
FTUS41 KPHI 011607 AAA
TAFRDG
TAF AMD
KRDG 011607Z 0116/0212 18005KT 3/4SM -SN BKN012 OVC030
     FM012300 VRB02KT 1SM -FZRAPL OVC005
     FM020500 23005KT 4SM BR OVC008
     FM020700 27007KT 6SM BR OVC012
     FM020900 31010KT P6SM OVC035=



000
FTUS41 KPHI 011607 AAB
TAFACY
TAF AMD
KACY 011607Z 0116/0212 21004KT 1/2SM SN OVC020
     FM011800 VRB04KT 1SM -FZRA BR OVC010
     FM020200 VRB04KT 1SM RA OVC005
     FM020700 23005KT 4SM BR OVC008
     FM020900 27007KT 6SM BR OVC015
     FM021100 31010KT P6SM OVC035=



000
FTUS41 KPHI 011607 AAC
TAFMIV
TAF AMD
KMIV 011607Z 0116/0212 15004KT 3/4SM -SN VV015
     FM011800 VRB04KT 1SM -FZRAPL BR OVC007
     FM020300 VRB03KT 1SM RA OVC005
     FM020700 23005KT 4SM BR OVC008
     FM020900 27007KT 6SM BR OVC015
     FM021100 31010KT P6SM OVC035=



000
FTUS41 KPHI 011607 AAB
TAFPNE
TAF AMD
KPNE 011607Z 0116/0212 18005KT P6SM OVC040
     FM011700 16003KT 1SM -SN OVC010
     FM012100 16006KT 1SM -FZRAPL OVC005
     FM020600 23005KT 4SM BR OVC008
     FM020800 27007KT 6SM BR OVC015
     FM021000 31010KT P6SM OVC035=



000
FTUS41 KPHI 011607 AAB
TAFTTN
TAF AMD
KTTN 011607Z 0116/0212 20009KT P6SM BKN035 OVC050
     FM011700 18006KT 2SM -SN OVC015
     FM012200 14003KT 1SM -FZRAPL OVC005
     FM020600 23005KT 4SM BR OVC008
     FM020800 27007KT 6SM BR OVC015
     FM021000 31010KT P6SM OVC035=



000
FTUS41 KPHI 011607 AAB
TAFPHL
TAF AMD
KPHL 011607Z 0116/0218 20010KT 4SM -SN BKN030 OVC050
     FM011700 17006KT 2SM -SN OVC012
     FM012100 18005KT 1SM -FZRAPL OVC006
     FM020600 23005KT 4SM BR OVC008
     FM020800 27007KT 6SM BR OVC015
     FM021000 31010KT P6SM OVC035
     FM021400 30014G24KT P6SM BKN035=



000
FTUS41 KPHI 011607 AAB
TAFABE
TAF AMD
KABE 011607Z 0116/0212 00000KT 1SM -SN BKN020 OVC035
     FM020000 VRB02KT 1SM -FZRASNPL OVC005
     FM020600 23005KT 3SM BR OVC008
     FM020800 27007KT 6SM BR OVC015
     FM021000 31010KT P6SM OVC035=



000
FTUS41 KPHI 011607 AAC
TAFILG
TAF AMD
KILG 011607Z 0116/0212 18010KT 2SM -SN SCT015 OVC035
     FM011800 16010KT 1SM -SN OVC015
     FM012100 19008KT 1SM -FZRAPL OVC006
     FM020600 23005KT 4SM BR OVC008
     FM020800 27007KT 6SM BR OVC015
     FM021000 31010KT P6SM OVC035=



000
FTUS41 KPHI 011539 AAB
TAFILG
TAF AMD
KILG 011539Z 0116/0212 19011KT 1SM -SN OVC025
     FM011800 180103KT 1SM -SN OVC007
     FM012100 19008KT 1SM -FZRAPL OVC005
     FM020600 23005KT 4SM BR OVC008
     FM020800 27007KT 6SM BR OVC015
     FM021000 31010KT P6SM OVC035=



000
FTUS41 KPHI 011539 AAB
TAFILG
TAF AMD
KILG 011539Z 0116/0212 19011KT 1SM -SN OVC025
     FM011800 180103KT 1SM -SN OVC007
     FM012100 19008KT 1SM -FZRAPL OVC005
     FM020600 23005KT 4SM BR OVC008
     FM020800 27007KT 6SM BR OVC015
     FM021000 31010KT P6SM OVC035=



000
FTUS41 KPHI 011538 AAB
TAFMIV
TAF AMD
KMIV 011538Z 0116/0212 VRB04KT 1 1/2SM -SN BKN020 OVC035
     FM011800 VRB04KT 1SM -FZRAPL BR OVC007
     FM020300 VRB03KT 1SM RA OVC005
     FM020700 23005KT 4SM BR OVC008
     FM020900 27007KT 6SM BR OVC015
     FM021100 31010KT P6SM OVC035=



000
FTUS41 KPHI 011538 AAB
TAFMIV
TAF AMD
KMIV 011538Z 0116/0212 VRB04KT 1 1/2SM -SN BKN020 OVC035
     FM011800 VRB04KT 1SM -FZRAPL BR OVC007
     FM020300 VRB03KT 1SM RA OVC005
     FM020700 23005KT 4SM BR OVC008
     FM020900 27007KT 6SM BR OVC015
     FM021100 31010KT P6SM OVC035=



000
FTUS41 KPHI 011537 AAA
TAFACY
TAF AMD
KACY 011537Z 0116/0212 17004KT 3SM -SN BKN020 OVC040
     FM011800 VRB04KT 1SM -FZRA BR OVC007
     FM020200 VRB04KT 1SM RA OVC005
     FM020700 23005KT 4SM BR OVC008
     FM020900 27007KT 6SM BR OVC015
     FM021100 31010KT P6SM OVC035=



000
FTUS41 KPHI 011537 AAA
TAFACY
TAF AMD
KACY 011537Z 0116/0212 17004KT 3SM -SN BKN020 OVC040
     FM011800 VRB04KT 1SM -FZRA BR OVC007
     FM020200 VRB04KT 1SM RA OVC005
     FM020700 23005KT 4SM BR OVC008
     FM020900 27007KT 6SM BR OVC015
     FM021100 31010KT P6SM OVC035=



000
FTUS41 KPHI 011517 AAA
TAFMIV
TAF AMD
KMIV 011517Z 0115/0212 VRB04KT 2SM -SN BKN020 OVC035
     FM011800 VRB04KT 1SM -FZRAPL BR OVC007
     FM020300 VRB03KT 1SM RA OVC005
     FM020700 23005KT 4SM BR OVC008
     FM020900 27007KT 6SM BR OVC015
     FM021100 31010KT P6SM OVC035=



000
FTUS41 KPHI 011407 AAA
TAFILG
TAF AMD
KILG 011407Z 0114/0212 18003KT P6SM OVC050
     FM011500 16004KT 4SM -SN OVC020
     FM011700 16003KT 1SM -SN OVC007
     FM012100 16006KT 1SM -FZRAPL OVC005
     FM020600 23005KT 4SM BR OVC008
     FM020800 27007KT 6SM BR OVC015
     FM021000 31010KT P6SM OVC035=



000
FTUS41 KPHI 011406 AAA
TAFPHL
TAF AMD
KPHL 011406Z 0114/0218 18003KT P6SM SCT035 OVC060
     FM011500 17006KT 4SM -SN OVC030
     FM011700 17006KT 2SM -SN OVC007
     FM012100 18005KT 1SM -FZRAPL OVC005
     FM020600 23005KT 4SM BR OVC008
     FM020800 27007KT 6SM BR OVC015
     FM021000 31010KT P6SM OVC035
     FM021400 30014G24KT P6SM BKN035=



000
FTUS41 KPHI 011405 AAA
TAFPNE
TAF AMD
KPNE 011405Z 0114/0212 14004KT P6SM OVC060
     FM011500 15005KT 4SM -SN OVC025
     FM011700 16003KT 1SM -SN OVC007
     FM012100 16006KT 1SM -FZRAPL OVC005
     FM020600 23005KT 4SM BR OVC008
     FM020800 27007KT 6SM BR OVC015
     FM021000 31010KT P6SM OVC035=



000
FTUS41 KPHI 011404 AAA
TAFTTN
TAF AMD
KTTN 011404Z 0114/0212 15003KT P6SM OVC050
     FM011500 16004KT 4SM -SN OVC025
     FM011700 16003KT 1SM -SN OVC007
     FM012200 14003KT 1SM -FZRAPL OVC005
     FM020600 23005KT 4SM BR OVC008
     FM020800 27007KT 6SM BR OVC015
     FM021000 31010KT P6SM OVC035=



000
FTUS41 KPHI 011319 AAA
TAFABE
TAF AMD
KABE 011319Z 0113/0212 15004KT P6SM -SN OVC050
     FM011500 15003KT 4SM -SN OVC025
     FM020000 VRB02KT 1SM -FZRASNPL OVC005
     FM020600 23005KT 4SM BR OVC008
     FM020800 27007KT 6SM BR OVC015
     FM021000 31010KT P6SM OVC035=



000
FTUS41 KPHI 011137
TAFACY
TAF
KACY 011137Z 0112/0212 VRB04KT P6SM SCT035 OVC080
     FM011500 15004KT 4SM -SNPL OVC020
     FM011700 VRB04KT 1SM -FZRA BR OVC007
     FM020200 VRB04KT 1SM RA OVC005
     FM020700 23005KT 4SM BR OVC008
     FM020900 27007KT 6SM BR OVC015
     FM021100 31010KT P6SM OVC035=



000
FTUS41 KPHI 011137
TAFPNE
TAF
KPNE 011137Z 0112/0212 10004KT P6SM SCT035 OVC090
     FM011400 15005KT 4SM -SN OVC020
     FM011600 16003KT 1SM -SN OVC007
     FM012100 16006KT 1SM -FZRAPL OVC005
     FM020600 23005KT 4SM BR OVC008
     FM020800 27007KT 6SM BR OVC015
     FM021000 31010KT P6SM OVC035=



000
FTUS41 KPHI 011137
TAFABE
TAF
KABE 011137Z 0112/0212 VRB02KT P6SM SCT035 OVC050
     FM011300 15004KT 4SM -SN OVC020
     FM011500 15003KT 1SM -SN OVC007
     FM020000 VRB02KT 1SM -FZRASNPL OVC005
     FM020600 23005KT 4SM BR OVC008
     FM020800 27007KT 6SM BR OVC015
     FM021000 31010KT P6SM OVC035=



000
FTUS41 KPHI 011137
TAFMIV
TAF
KMIV 011137Z 0112/0212 VRB04KT P6SM SCT035 OVC080
     FM011500 15004KT 4SM -SNPL OVC020
     FM011700 VRB04KT 1SM -FZRAPL BR OVC007
     FM020300 VRB03KT 1SM RA OVC005
     FM020700 23005KT 4SM BR OVC008
     FM020900 27007KT 6SM BR OVC015
     FM021100 31010KT P6SM OVC035=



000
FTUS41 KPHI 011137
TAFILG
TAF
KILG 011137Z 0112/0212 VRB02KT P6SM SCT035 OVC080
     FM011400 15004KT 4SM -SN OVC020
     FM011600 17003KT 1SM -SN OVC007
     FM012100 16006KT 1SM -FZRAPL OVC005
     FM020600 23005KT 4SM BR OVC008
     FM020800 27007KT 6SM BR OVC015
     FM021000 31010KT P6SM OVC035=



000
FTUS41 KPHI 011137
TAFRDG
TAF
KRDG 011137Z 0112/0212 VRB02KT P6SM SCT035 OVC070
     FM011300 12004KT 4SM -SN OVC020
     FM011500 16003KT 1SM -SN OVC007
     FM012300 VRB02KT 1SM -FZRAPL OVC005
     FM020500 23005KT 4SM BR OVC008
     FM020700 27007KT 6SM BR OVC015
     FM020900 31010KT P6SM OVC035=



000
FTUS41 KPHI 011137
TAFTTN
TAF
KTTN 011137Z 0112/0212 VRB02KT P6SM SCT035 OVC070
     FM011400 17004KT 4SM -SN OVC020
     FM011600 16003KT 1SM -SN OVC007
     FM012200 14003KT 1SM -FZRAPL OVC005
     FM020600 23005KT 4SM BR OVC008
     FM020800 27007KT 6SM BR OVC015
     FM021000 31010KT P6SM OVC035=



000
FTUS41 KPHI 011137
TAFPHL
TAF
KPHL 011137Z 0112/0218 VRB02KT P6SM SCT035 OVC080
     FM011400 17006KT 4SM -SN OVC020
     FM011600 17006KT 1SM -SN OVC007
     FM012100 18005KT 1SM -FZRAPL OVC005
     FM020600 23005KT 4SM BR OVC008
     FM020800 27007KT 6SM BR OVC015
     FM021000 31010KT P6SM OVC035
     FM021400 30014G24KT P6SM BKN035=



000
FTUS41 KPHI 011007 AAA
TAFPNE
TAF AMD
KPNE 011007Z 0110/0206 VRB02KT P6SM OVC090
     FM011500 15005KT 4SM -SN OVC020
     FM011700 16003KT 1SM -SN OVC007
     FM012200 16006KT 1SM -FZRAPL OVC005=



000
FTUS41 KPHI 011007 AAB
TAFPHL
TAF AMD
KPHL 011007Z 0110/0212 VRB02KT P6SM OVC080
     FM011500 17006KT 4SM -SN OVC020
     FM011700 17006KT 1SM -SN OVC007
     FM012200 18005KT 1SM -FZRAPL OVC005
     FM020600 23005KT 4SM BR OVC008
     FM020900 27007KT 6SM BR OVC015=



000
FTUS41 KPHI 011007 AAA
TAFACY
TAF AMD
KACY 011007Z 0110/0206 VRB04KT P6SM OVC080
     FM011700 15004KT 4SM -SNPL OVC020
     FM011900 VRB04KT 1SM -FZRA BR OVC007
     FM020200 VRB04KT 1SM RA OVC005=



000
FTUS41 KPHI 011007 AAA
TAFABE
TAF AMD
KABE 011007Z 0110/0206 VRB02KT P6SM OVC050
     FM011300 15004KT 4SM -SN OVC020
     FM011500 15003KT 1SM -SN OVC007
     FM020000 VRB02KT 1SM -FZRASNPL OVC005=



000
FTUS41 KPHI 011007 AAA
TAFTTN
TAF AMD
KTTN 011007Z 0110/0206 VRB02KT P6SM OVC070
     FM011500 17004KT 4SM -SN OVC020
     FM011700 16003KT 1SM -SN OVC007
     FM012300 14003KT 1SM -FZRAPL OVC005=



000
FTUS41 KPHI 011007 AAA
TAFTTN
TAF AMD
KTTN 011007Z 0110/0206 VRB02KT P6SM OVC070
     FM011500 17004KT 4SM -SN OVC020
     FM011700 16003KT 1SM -SN OVC007
     FM012300 14003KT 1SM -FZRAPL OVC005=



000
FTUS41 KPHI 011007 AAB
TAFPHL
TAF AMD
KPHL 011007Z 0110/0212 VRB02KT P6SM OVC080
     FM011500 17006KT 4SM -SN OVC020
     FM011700 17006KT 1SM -SN OVC007
     FM012200 18005KT 1SM -FZRAPL OVC005
     FM020600 23005KT 4SM BR OVC008
     FM020900 27007KT 6SM BR OVC015=



000
FTUS41 KPHI 011007 AAA
TAFILG
TAF AMD
KILG 011007Z 0110/0206 VRB02KT P6SM OVC080
     FM011500 15004KT 4SM -SN OVC020
     FM011700 17003KT 1SM -SN OVC007
     FM012200 16006KT 1SM -FZRAPL OVC005=



000
FTUS41 KPHI 011007 AAA
TAFRDG
TAF AMD
KRDG 011007Z 0110/0206 VRB02KT P6SM OVC060
     FM011300 12004KT 4SM -SN OVC020
     FM011500 16003KT 1SM -SN OVC007
     FM012300 VRB02KT 1SM -FZRAPL OVC005=



000
FTUS41 KPHI 011007 AAA
TAFABE
TAF AMD
KABE 011007Z 0110/0206 VRB02KT P6SM OVC050
     FM011300 15004KT 4SM -SN OVC020
     FM011500 15003KT 1SM -SN OVC007
     FM020000 VRB02KT 1SM -FZRASNPL OVC005=



000
FTUS41 KPHI 011007 AAA
TAFACY
TAF AMD
KACY 011007Z 0110/0206 VRB04KT P6SM OVC080
     FM011700 15004KT 4SM -SNPL OVC020
     FM011900 VRB04KT 1SM -FZRA BR OVC007
     FM020200 VRB04KT 1SM RA OVC005=



000
FTUS41 KPHI 011007 AAA
TAFPNE
TAF AMD
KPNE 011007Z 0110/0206 VRB02KT P6SM OVC090
     FM011500 15005KT 4SM -SN OVC020
     FM011700 16003KT 1SM -SN OVC007
     FM012200 16006KT 1SM -FZRAPL OVC005=



000
FTUS41 KPHI 011007 AAA
TAFILG
TAF AMD
KILG 011007Z 0110/0206 VRB02KT P6SM OVC080
     FM011500 15004KT 4SM -SN OVC020
     FM011700 17003KT 1SM -SN OVC007
     FM012200 16006KT 1SM -FZRAPL OVC005=



000
FTUS41 KPHI 011007 AAA
TAFRDG
TAF AMD
KRDG 011007Z 0110/0206 VRB02KT P6SM OVC060
     FM011300 12004KT 4SM -SN OVC020
     FM011500 16003KT 1SM -SN OVC007
     FM012300 VRB02KT 1SM -FZRAPL OVC005=



000
FTUS41 KPHI 011007 AAA
TAFMIV
TAF AMD
KMIV 011007Z 0110/0206 VRB04KT P6SM OVC070
     FM011700 15004KT 4SM -SNPL OVC025
     FM011900 VRB04KT 1SM -FZRAPL BR OVC007
     FM020300 VRB03KT 1SM RA OVC005=



000
FTUS41 KPHI 011007 AAA
TAFMIV
TAF AMD
KMIV 011007Z 0110/0206 VRB04KT P6SM OVC070
     FM011700 15004KT 4SM -SNPL OVC025
     FM011900 VRB04KT 1SM -FZRAPL BR OVC007
     FM020300 VRB03KT 1SM RA OVC005=



000
FTUS41 KPHI 010852 AAA
TAFPHL
TAF AMD
KPHL 010852Z 0109/0212 VRB02KT P6SM BKN100
     FM011300 12004KT P6SM OVC050
     FM011700 17006KT 4SM -SN OVC020
     FM011900 17006KT 1SM -SN OVC007
     FM012200 18005KT 1SM -FZRAPL OVC005
     FM020600 23005KT 4SM BR OVC008
     FM020900 27007KT 6SM BR OVC015=



000
FTUS41 KPHI 010852 AAA
TAFPHL
TAF AMD
KPHL 010852Z 0109/0212 VRB02KT P6SM BKN100
     FM011300 12004KT P6SM OVC050
     FM011700 17006KT 4SM -SN OVC020
     FM011900 17006KT 1SM -SN OVC007
     FM012200 18005KT 1SM -FZRAPL OVC005
     FM020600 23005KT 4SM BR OVC008
     FM020900 27007KT 6SM BR OVC015=



000
FTUS41 KPHI 010528
TAFPHL
TAF
KPHL 010528Z 0106/0212 VRB02KT P6SM BKN120
     FM011300 12004KT P6SM OVC050
     FM011700 17006KT 4SM -SN OVC020
     FM011900 17006KT 1SM -SN OVC007
     FM012200 18005KT 1SM -FZRAPL OVC005
     FM020600 23005KT 4SM BR OVC008
     FM020900 27007KT 6SM BR OVC015=



000
FTUS41 KPHI 010528
TAFABE
TAF
KABE 010528Z 0106/0206 VRB02KT P6SM BKN120
     FM011300 12004KT P6SM OVC035
     FM011600 15004KT 4SM -SN OVC020
     FM011800 15003KT 1SM -SN OVC007
     FM020000 VRB02KT 1SM -FZRASNPL OVC005=



000
FTUS41 KPHI 010528
TAFACY
TAF
KACY 010528Z 0106/0206 VRB04KT P6SM BKN120
     FM011600 16003KT P6SM OVC050
      TEMPO 0117/0119 6SM -SN OVC035
     FM011900 VRB04KT 1SM -FZRA BR OVC007
     FM020200 VRB04KT 1SM RA OVC005=



000
FTUS41 KPHI 010528
TAFMIV
TAF
KMIV 010528Z 0106/0206 VRB04KT P6SM BKN120
     FM011600 14003KT P6SM OVC050
      TEMPO 0117/0119 4SM -SNPL OVC025
     FM011900 VRB04KT 1SM -FZRAPL BR OVC007
     FM020300 VRB03KT 1SM RA OVC005=



000
FTUS41 KPHI 010528
TAFTTN
TAF
KTTN 010528Z 0106/0206 VRB02KT P6SM BKN120
     FM011300 15005KT P6SM OVC050
     FM011700 17004KT 4SM -SN OVC020
     FM011900 16003KT 1SM -SN OVC007
     FM012300 14003KT 1SM -FZRAPL OVC005=



000
FTUS41 KPHI 010528
TAFRDG
TAF
KRDG 010528Z 0106/0206 VRB02KT P6SM BKN120
     FM011200 VRB02KT P6SM OVC035
     FM011500 12004KT 4SM -SN OVC020
     FM011700 16003KT 1SM -SN OVC007
     FM012300 VRB02KT 1SM -FZRAPL OVC005=



000
FTUS41 KPHI 010528
TAFILG
TAF
KILG 010528Z 0106/0206 VRB02KT P6SM BKN120
     FM011300 12005KT P6SM OVC050
     FM011700 15004KT 4SM -SN OVC020
     FM011900 17003KT 1SM -SN OVC007
     FM012200 16006KT 1SM -FZRAPL OVC005=



000
FTUS41 KPHI 010528
TAFPNE
TAF
KPNE 010528Z 0106/0206 VRB02KT P6SM BKN120
     FM011300 10004KT P6SM OVC050
     FM011700 15005KT 4SM -SN OVC020
     FM011900 16003KT 1SM -SN OVC007
     FM012200 16006KT 1SM -FZRAPL OVC005=



000
FTUS41 KPHI 010528
TAFRDG
TAF
KRDG 010528Z 0106/0206 VRB02KT P6SM BKN120
     FM011200 VRB02KT P6SM OVC035
     FM011500 12004KT 4SM -SN OVC020
     FM011700 16003KT 1SM -SN OVC007
     FM012300 VRB02KT 1SM -FZRAPL OVC005=



000
FTUS41 KPHI 010528
TAFABE
TAF
KABE 010528Z 0106/0206 VRB02KT P6SM BKN120
     FM011300 12004KT P6SM OVC035
     FM011600 15004KT 4SM -SN OVC020
     FM011800 15003KT 1SM -SN OVC007
     FM020000 VRB02KT 1SM -FZRASNPL OVC005=



000
FTUS41 KPHI 010528
TAFILG
TAF
KILG 010528Z 0106/0206 VRB02KT P6SM BKN120
     FM011300 12005KT P6SM OVC050
     FM011700 15004KT 4SM -SN OVC020
     FM011900 17003KT 1SM -SN OVC007
     FM012200 16006KT 1SM -FZRAPL OVC005=



000
FTUS41 KPHI 010528
TAFTTN
TAF
KTTN 010528Z 0106/0206 VRB02KT P6SM BKN120
     FM011300 15005KT P6SM OVC050
     FM011700 17004KT 4SM -SN OVC020
     FM011900 16003KT 1SM -SN OVC007
     FM012300 14003KT 1SM -FZRAPL OVC005=



000
FTUS41 KPHI 010528
TAFACY
TAF
KACY 010528Z 0106/0206 VRB04KT P6SM BKN120
     FM011600 16003KT P6SM OVC050
      TEMPO 0117/0119 6SM -SN OVC035
     FM011900 VRB04KT 1SM -FZRA BR OVC007
     FM020200 VRB04KT 1SM RA OVC005=



000
FTUS41 KPHI 010528
TAFMIV
TAF
KMIV 010528Z 0106/0206 VRB04KT P6SM BKN120
     FM011600 14003KT P6SM OVC050
      TEMPO 0117/0119 4SM -SNPL OVC025
     FM011900 VRB04KT 1SM -FZRAPL BR OVC007
     FM020300 VRB03KT 1SM RA OVC005=



000
FTUS41 KPHI 010528
TAFPHL
TAF
KPHL 010528Z 0106/0212 VRB02KT P6SM BKN120
     FM011300 12004KT P6SM OVC050
     FM011700 17006KT 4SM -SN OVC020
     FM011900 17006KT 1SM -SN OVC007
     FM012200 18005KT 1SM -FZRAPL OVC005
     FM020600 23005KT 4SM BR OVC008
     FM020900 27007KT 6SM BR OVC015=



000
FTUS41 KPHI 010528
TAFPNE
TAF
KPNE 010528Z 0106/0206 VRB02KT P6SM BKN120
     FM011300 10004KT P6SM OVC050
     FM011700 15005KT 4SM -SN OVC020
     FM011900 16003KT 1SM -SN OVC007
     FM012200 16006KT 1SM -FZRAPL OVC005=



000
FTUS41 KPHI 010134 AAA
TAFPHL
TAF AMD
KPHL 010134Z 0102/0206 VRB03KT P6SM SCT250
     FM010800 VRB02KT P6SM OVC100
     FM011300 12005KT P6SM OVC050
     FM011700 14004KT 6SM -SN OVC030
     FM011900 15005KT 2SM -SN OVC010
     FM012200 16006KT 3SM -FZRAPL OVC005
     FM020400 17005KT 4SM -RA BR OVC007=



000
FTUS41 KPHI 010134 AAA
TAFPHL
TAF AMD
KPHL 010134Z 0102/0206 VRB03KT P6SM SCT250
     FM010800 VRB02KT P6SM OVC100
     FM011300 12005KT P6SM OVC050
     FM011700 14004KT 6SM -SN OVC030
     FM011900 15005KT 2SM -SN OVC010
     FM012200 16006KT 3SM -FZRAPL OVC005
     FM020400 17005KT 4SM -RA BR OVC007=



000
FTUS41 KPHI 282340
TAFILG
TAF
KILG 282340Z 0100/0124 VRB04KT P6SM BKN250
     FM010900 VRB02KT P6SM OVC120
     FM011500 12005KT P6SM OVC050
     FM011700 14004KT 6SM -SN OVC040
     FM012100 16006KT 3SM -FZRAPL OVC005=



000
FTUS41 KPHI 282340
TAFRDG
TAF
KRDG 282340Z 0100/0124 VRB03KT P6SM SCT250
     FM010600 VRB02KT P6SM OVC100
     FM011200 VRB02KT P6SM OVC035
     FM011600 15004KT 4SM -SN OVC020=



000
FTUS41 KPHI 282340
TAFABE
TAF
KABE 282340Z 0100/0124 VRB03KT P6SM SCT250
     FM010600 VRB02KT P6SM OVC120
     FM011300 14004KT P6SM OVC035
     FM011700 15004KT 4SM -SN OVC020=



000
FTUS41 KPHI 282340
TAFPHL
TAF
KPHL 282340Z 0100/0206 VRB03KT P6SM BKN150
     FM010800 VRB02KT P6SM OVC120
     FM011400 12005KT P6SM OVC050
     FM011700 14004KT 6SM -SN OVC030
     FM011900 15005KT 2SM -SN OVC010
     FM012200 16006KT 3SM -FZRAPL OVC005
     FM020400 17005KT 4SM -RA BR OVC007=



000
FTUS41 KPHI 282340
TAFPNE
TAF
KPNE 282340Z 0100/0124 VRB04KT P6SM SCT250
     FM010700 VRB02KT P6SM OVC120
     FM011400 12005KT P6SM OVC050
     FM011700 14004KT 6SM -SN OVC030
     FM012200 16006KT 3SM -FZRAPL OVC005=



000
FTUS41 KPHI 282340
TAFTTN
TAF
KTTN 282340Z 0100/0124 VRB04KT P6SM SCT250
     FM010600 VRB02KT P6SM OVC120
     FM011400 12005KT P6SM OVC050
     FM011700 15004KT 6SM -SN OVC030
     FM012300 16006KT 3SM -FZRAPL OVC005=



000
FTUS41 KPHI 282340
TAFMIV
TAF
KMIV 282340Z 0100/0124 VRB02KT P6SM BKN250
     FM011000 00000KT P6SM OVC120
     FM011600 16003KT P6SM OVC050
      TEMPO 0117/0118 6SM -SN OVC035
     FM011900 16006KT 3SM -FZRA BR OVC005=



000
FTUS41 KPHI 282340
TAFACY
TAF
KACY 282340Z 0100/0124 VRB04KT P6SM BKN250
     FM011000 00000KT P6SM OVC120
     FM011600 16003KT P6SM OVC050
      TEMPO 0117/0118 6SM -SN OVC035
     FM011900 16006KT 3SM -FZRA BR OVC005=



000
FTUS41 KPHI 282340
TAFACY
TAF
KACY 282340Z 0100/0124 VRB04KT P6SM BKN250
     FM011000 00000KT P6SM OVC120
     FM011600 16003KT P6SM OVC050
      TEMPO 0117/0118 6SM -SN OVC035
     FM011900 16006KT 3SM -FZRA BR OVC005=



000
FTUS41 KPHI 282340
TAFPHL
TAF
KPHL 282340Z 0100/0206 VRB03KT P6SM BKN150
     FM010800 VRB02KT P6SM OVC120
     FM011400 12005KT P6SM OVC050
     FM011700 14004KT 6SM -SN OVC030
     FM011900 15005KT 2SM -SN OVC010
     FM012200 16006KT 3SM -FZRAPL OVC005
     FM020400 17005KT 4SM -RA BR OVC007=



000
FTUS41 KPHI 282340
TAFTTN
TAF
KTTN 282340Z 0100/0124 VRB04KT P6SM SCT250
     FM010600 VRB02KT P6SM OVC120
     FM011400 12005KT P6SM OVC050
     FM011700 15004KT 6SM -SN OVC030
     FM012300 16006KT 3SM -FZRAPL OVC005=



000
FTUS41 KPHI 282340
TAFPNE
TAF
KPNE 282340Z 0100/0124 VRB04KT P6SM SCT250
     FM010700 VRB02KT P6SM OVC120
     FM011400 12005KT P6SM OVC050
     FM011700 14004KT 6SM -SN OVC030
     FM012200 16006KT 3SM -FZRAPL OVC005=



000
FTUS41 KPHI 282340
TAFABE
TAF
KABE 282340Z 0100/0124 VRB03KT P6SM SCT250
     FM010600 VRB02KT P6SM OVC120
     FM011300 14004KT P6SM OVC035
     FM011700 15004KT 4SM -SN OVC020=



000
FTUS41 KPHI 282340
TAFRDG
TAF
KRDG 282340Z 0100/0124 VRB03KT P6SM SCT250
     FM010600 VRB02KT P6SM OVC100
     FM011200 VRB02KT P6SM OVC035
     FM011600 15004KT 4SM -SN OVC020=



000
FTUS41 KPHI 282340
TAFILG
TAF
KILG 282340Z 0100/0124 VRB04KT P6SM BKN250
     FM010900 VRB02KT P6SM OVC120
     FM011500 12005KT P6SM OVC050
     FM011700 14004KT 6SM -SN OVC040
     FM012100 16006KT 3SM -FZRAPL OVC005=



000
FTUS41 KPHI 282340
TAFMIV
TAF
KMIV 282340Z 0100/0124 VRB02KT P6SM BKN250
     FM011000 00000KT P6SM OVC120
     FM011600 16003KT P6SM OVC050
      TEMPO 0117/0118 6SM -SN OVC035
     FM011900 16006KT 3SM -FZRA BR OVC005=



000
FTUS41 KPHI 282132 AAA
TAFPHL
TAF AMD
KPHL 282132Z 2822/0124 VRB03KT P6SM SCT250
     FM010800 VRB02KT P6SM OVC120
     FM011400 12005KT P6SM OVC050
     FM011700 14004KT 6SM -SN OVC030
     FM011900 15005KT 2SM -SN OVC010
     FM012200 16006KT 3SM -FZRAPL OVC005=



000
FTUS41 KPHI 281727
TAFPHL
TAF
KPHL 281727Z 2818/0124 30004KT P6SM SCT250
     FM010800 VRB02KT P6SM OVC120
     FM011400 12005KT P6SM OVC050
     FM011700 14004KT 6SM -SN OVC030
     FM011900 15005KT 2SM -SN OVC010
     FM012200 16006KT 3SM -FZRAPL OVC005=



000
FTUS41 KPHI 281727
TAFILG
TAF
KILG 281727Z 2818/0118 30004KT P6SM BKN250
     FM010900 VRB02KT P6SM OVC120
     FM011500 12005KT P6SM OVC050
     FM011700 14004KT 6SM -SN OVC040=



000
FTUS41 KPHI 281727
TAFPNE
TAF
KPNE 281727Z 2818/0118 31004KT P6SM SCT250
     FM010700 VRB02KT P6SM OVC120
     FM011400 12005KT P6SM OVC050
     FM011700 14004KT 6SM -SN OVC030=



000
FTUS41 KPHI 281727
TAFABE
TAF
KABE 281727Z 2818/0118 27003KT P6SM SCT250
     FM010600 VRB02KT P6SM OVC120
     FM011300 14004KT P6SM OVC035
     FM011700 15004KT 4SM -SN OVC020=



000
FTUS41 KPHI 281727
TAFRDG
TAF
KRDG 281727Z 2818/0118 VRB03KT P6SM SCT250
     FM010600 VRB02KT P6SM OVC100
     FM011200 VRB02KT P6SM OVC035
     FM011600 15004KT 4SM -SN OVC020=



000
FTUS41 KPHI 281727
TAFTTN
TAF
KTTN 281727Z 2818/0118 30004KT P6SM SCT250
     FM010600 VRB02KT P6SM OVC120
     FM011400 12005KT P6SM OVC050
     FM011700 15004KT 6SM -SN OVC030=



000
FTUS41 KPHI 281727
TAFMIV
TAF
KMIV 281727Z 2818/0118 32005KT P6SM BKN250
     FM011000 00000KT P6SM OVC120
     FM011600 16003KT P6SM OVC050
      TEMPO 0117/0118 -SN OVC035=



000
FTUS41 KPHI 281727
TAFACY
TAF
KACY 281727Z 2818/0118 30007KT P6SM BKN250
     FM011000 00000KT P6SM OVC120
     FM011600 16003KT P6SM OVC050
      TEMPO 0117/0118 -SN OVC035=



000
FTUS41 KPHI 281132
TAFILG
TAF
KILG 281132Z 2812/0112 35006KT P6SM SCT200
     FM282100 30005KT P6SM SCT200
     FM010200 VRB02KT P6SM SCT200=



000
FTUS41 KPHI 281132
TAFTTN
TAF
KTTN 281132Z 2812/0112 35005KT P6SM SCT200
     FM282100 30005KT P6SM SCT200
     FM010000 VRB02KT P6SM SCT200=



000
FTUS41 KPHI 281132
TAFABE
TAF
KABE 281132Z 2812/0112 30006KT P6SM SCT200
     FM282100 26004KT P6SM SCT200
     FM010000 VRB02KT P6SM SCT200=



000
FTUS41 KPHI 281132
TAFRDG
TAF
KRDG 281132Z 2812/0112 32007KT P6SM SCT200
     FM010000 VRB02KT P6SM SCT200=



000
FTUS41 KPHI 281132
TAFPNE
TAF
KPNE 281132Z 2812/0112 35007KT P6SM SCT200
     FM282100 30005KT P6SM SCT200
     FM010200 VRB02KT P6SM SCT200=



000
FTUS41 KPHI 281132
TAFMIV
TAF
KMIV 281132Z 2812/0112 34005KT P6SM SCT200
     FM010200 00000KT P6SM SCT200=



000
FTUS41 KPHI 281132
TAFPHL
TAF
KPHL 281132Z 2812/0118 35008KT P6SM SCT200
     FM282100 29005KT P6SM SCT200
     FM010200 VRB02KT P6SM SCT200
     FM011200 15004KT P6SM BKN050 OVC100=



000
FTUS41 KPHI 281132
TAFACY
TAF
KACY 281132Z 2812/0112 35008KT P6SM SCT200
     FM282100 30005KT P6SM SCT200
     FM010200 VRB02KT P6SM SCT200=



000
FTUS41 KPHI 280901 AAA
TAFPHL
TAF AMD
KPHL 280901Z 2809/0112 36008KT P6SM SCT200
     FM282100 29005KT P6SM SCT200
     FM010200 VRB02KT P6SM SCT200=



000
FTUS41 KPHI 280528
TAFACY
TAF
KACY 280528Z 2806/0106 32006KT P6SM SKC
     FM281500 35008KT P6SM SCT150
     FM010200 VRB02KT P6SM SCT200=



000
FTUS41 KPHI 280528
TAFMIV
TAF
KMIV 280528Z 2806/0106 33006KT P6SM SKC
     FM281500 36006KT P6SM SCT150
     FM010200 00000KT P6SM SCT200=



000
FTUS41 KPHI 280528
TAFILG
TAF
KILG 280528Z 2806/0106 33008KT P6SM SKC
     FM281500 35006KT P6SM SCT150
     FM010200 VRB02KT P6SM SCT200=



000
FTUS41 KPHI 280528
TAFTTN
TAF
KTTN 280528Z 2806/0106 35004KT P6SM SKC
     FM281500 36004KT P6SM SCT150
     FM010000 VRB02KT P6SM SCT200=



000
FTUS41 KPHI 280528
TAFPNE
TAF
KPNE 280528Z 2806/0106 33005KT P6SM SKC
     FM281500 35005KT P6SM SCT150
     FM010200 VRB02KT P6SM SCT200=



000
FTUS41 KPHI 280528
TAFRDG
TAF
KRDG 280528Z 2806/0106 31004KT P6SM SKC
     FM281300 32005KT P6SM SCT150
     FM010000 VRB02KT P6SM SCT200=



000
FTUS41 KPHI 280528
TAFPHL
TAF
KPHL 280528Z 2806/0112 33008KT P6SM SKC
     FM281500 35006KT P6SM SCT150
     FM010200 VRB02KT P6SM SCT200=



000
FTUS41 KPHI 280528
TAFABE
TAF
KABE 280528Z 2806/0106 33005KT P6SM SKC
     FM281300 33005KT P6SM SCT150
     FM010000 VRB02KT P6SM SCT200=



000
FTUS41 KPHI 272320
TAFMIV
TAF
KMIV 272320Z 2800/2824 29005KT P6SM SKC
     FM280600 VRB03KT P6SM FEW200
     FM281500 36006KT P6SM SCT150=



000
FTUS41 KPHI 272320
TAFACY
TAF
KACY 272320Z 2800/2824 33006KT P6SM SKC
     FM281500 36007KT P6SM SCT150=



000
FTUS41 KPHI 272320
TAFILG
TAF
KILG 272320Z 2800/2824 33007KT P6SM SKC
     FM281500 35006KT P6SM SCT150=



000
FTUS41 KPHI 272320
TAFPHL
TAF
KPHL 272320Z 2800/0106 33008KT P6SM SKC
     FM281500 35006KT P6SM SCT150
     FM010200 VRB02KT P6SM BKN180=



000
FTUS41 KPHI 272320
TAFACY
TAF
KACY 272320Z 2800/2824 33006KT P6SM SKC
     FM281500 36007KT P6SM SCT150=



000
FTUS41 KPHI 272320
TAFMIV
TAF
KMIV 272320Z 2800/2824 29005KT P6SM SKC
     FM280600 VRB03KT P6SM FEW200
     FM281500 36006KT P6SM SCT150=



000
FTUS41 KPHI 272320
TAFABE
TAF
KABE 272320Z 2800/2824 28005KT P6SM SKC
     FM280700 VRB02KT P6SM SCT200
     FM281300 33005KT P6SM SCT150=



000
FTUS41 KPHI 272320
TAFILG
TAF
KILG 272320Z 2800/2824 33007KT P6SM SKC
     FM281500 35006KT P6SM SCT150=



000
FTUS41 KPHI 272320
TAFTTN
TAF
KTTN 272320Z 2800/2824 35006KT P6SM SKC
     FM281500 36004KT P6SM SCT150=



000
FTUS41 KPHI 272320
TAFPNE
TAF
KPNE 272320Z 2800/2824 33006KT P6SM SKC
     FM281500 35005KT P6SM SCT150=



000
FTUS41 KPHI 272320
TAFRDG
TAF
KRDG 272320Z 2800/2824 31007KT P6SM SKC
     FM280700 VRB02KT P6SM SCT200
     FM281300 32005KT P6SM SCT150=



000
FTUS41 KPHI 272035 AAA
TAFPHL
TAF AMD
KPHL 272035Z 2721/2824 33011KT P6SM FEW040
     FM280000 33005KT P6SM SKC
     FM280800 32005KT P6SM SCT150
     FM281800 28006KT P6SM SCT050 SCT100=



000
FTUS41 KPHI 271722
TAFRDG
TAF
KRDG 271722Z 2718/2818 34009KT P6SM FEW040
     FM280000 33004KT P6SM SKC
     FM280800 31006KT P6SM SCT150=



000
FTUS41 KPHI 271722
TAFABE
TAF
KABE 271722Z 2718/2818 33009KT P6SM FEW040
     FM280000 32004KT P6SM SKC
     FM280800 31006KT P6SM SCT150=



000
FTUS41 KPHI 271722
TAFMIV
TAF
KMIV 271722Z 2718/2818 33009KT P6SM SCT040
     FM280000 34005KT P6SM SKC
     FM280800 34005KT P6SM SCT150=



000
FTUS41 KPHI 271722
TAFILG
TAF
KILG 271722Z 2718/2818 34009KT P6SM SCT040
     FM280000 33005KT P6SM SKC
     FM280800 33005KT P6SM SCT150=



000
FTUS41 KPHI 271722
TAFPNE
TAF
KPNE 271722Z 2718/2818 33009KT P6SM SCT040
     FM280000 34005KT P6SM SKC
     FM280800 34005KT P6SM SCT150=



000
FTUS41 KPHI 271722
TAFTTN
TAF
KTTN 271722Z 2718/2818 33009KT P6SM FEW040
     FM280000 34005KT P6SM SKC
     FM280800 34005KT P6SM SCT150=



000
FTUS41 KPHI 271722
TAFACY
TAF
KACY 271722Z 2718/2818 33012KT P6SM SCT040
     FM280000 34005KT P6SM SKC
     FM280800 34005KT P6SM SCT150=



000
FTUS41 KPHI 271722
TAFPHL
TAF
KPHL 271722Z 2718/2824 33010KT P6SM SCT040
     FM280000 33005KT P6SM SKC
     FM280800 32005KT P6SM SCT150
     FM281800 28006KT P6SM SCT050 SCT100=



000
FTUS41 KPHI 271443 AAB
TAFPHL
TAF AMD
KPHL 271443Z 2715/2818 34011KT P6SM SCT040
     FM280000 33006KT P6SM FEW200=



000
FTUS41 KPHI 271443 AAB
TAFPHL
TAF AMD
KPHL 271443Z 2715/2818 34011KT P6SM SCT040
     FM280000 33006KT P6SM FEW200=



000
FTUS41 KPHI 271304 AAA
TAFPNE
TAF AMD
KPNE 271304Z 2713/2812 36004KT P6SM OVC040
      TEMPO 2713/2714 3SM -SN
     FM271500 34011KT P6SM FEW040
     FM272200 33006KT P6SM FEW250=



000
FTUS41 KPHI 271153 AAA
TAFPHL
TAF AMD
KPHL 271153Z 2712/2818 36007KT P6SM OVC040
      TEMPO 2712/2714 2SM -SN OVC030
     FM271500 33011KT P6SM FEW040
     FM280000 33006KT P6SM FEW200=



000
FTUS41 KPHI 271153 AAA
TAFILG
TAF AMD
KILG 271153Z 2712/2812 36005KT P6SM OVC040
      TEMPO 2712/2713 2SM -SN OVC030
     FM271500 33011KT P6SM FEW040
     FM280000 33007KT P6SM FEW250=



000
FTUS41 KPHI 271120
TAFMIV
TAF
KMIV 271120Z 2712/2812 01005KT P6SM BKN060
     FM271600 32008KT P6SM FEW050
     FM280000 33004KT P6SM FEW200=



000
FTUS41 KPHI 271120
TAFPHL
TAF
KPHL 271120Z 2712/2818 36007KT P6SM OVC040
      TEMPO 2712/2713 5SM -SN OVC030
     FM271500 33011KT P6SM FEW040
     FM280000 33006KT P6SM FEW200=



000
FTUS41 KPHI 271120
TAFTTN
TAF
KTTN 271120Z 2712/2812 35003KT P6SM OVC040
     FM271500 35011KT P6SM FEW040
     FM272200 33006KT P6SM FEW250=



000
FTUS41 KPHI 271120
TAFPNE
TAF
KPNE 271120Z 2712/2812 36004KT P6SM OVC040
     FM271500 34011KT P6SM FEW040
     FM272200 33006KT P6SM FEW250=



000
FTUS41 KPHI 271120
TAFILG
TAF
KILG 271120Z 2712/2812 36005KT P6SM OVC040
      TEMPO 2712/2713 5SM -SN OVC030
     FM271500 33011KT P6SM FEW040
     FM280000 33007KT P6SM FEW250=



000
FTUS41 KPHI 271120
TAFRDG
TAF
KRDG 271120Z 2712/2812 34003KT P6SM BKN040
     FM271400 32009KT P6SM FEW040
     FM280000 31004KT P6SM FEW250=



000
FTUS41 KPHI 271120
TAFABE
TAF
KABE 271120Z 2712/2812 36003KT P6SM OVC040
     FM271500 32009KT P6SM FEW040
     FM280000 31004KT P6SM FEW250=



000
FTUS41 KPHI 271120
TAFACY
TAF
KACY 271120Z 2712/2812 33004KT P6SM BKN060
     FM271400 33010KT P6SM FEW060
     FM280000 33005KT P6SM FEW030 SCT200=



000
FTUS41 KPHI 271016 AAA
TAFPNE
TAF AMD
KPNE 271016Z 2710/2806 36004KT P6SM BKN050
      TEMPO 2711/2713 5SM -SN BKN030 OVC050
     FM271500 34011KT P6SM FEW040
     FM272200 33006KT P6SM FEW025=



000
FTUS41 KPHI 271008 AAB
TAFPHL
TAF AMD
KPHL 271008Z 2710/2812 36007KT P6SM OVC050
      TEMPO 2710/2712 5SM -SN BKN030 OVC050
     FM271500 33011KT P6SM FEW050
     FM280000 33005KT P6SM SCT200=



000
FTUS41 KPHI 270836 AAA
TAFPHL
TAF AMD
KPHL 270836Z 2709/2812 36007KT P6SM OVC050
     FM271500 33011KT P6SM FEW050
     FM280000 33005KT P6SM SCT200=



000
FTUS41 KPHI 270726 AAA
TAFABE
TAF AMD
KABE 270726Z 2707/2806 36003KT P6SM BKN050
     FM271400 32007KT P6SM SCT040=



000
FTUS41 KPHI 270725 AAA
TAFRDG
TAF AMD
KRDG 270725Z 2707/2806 34003KT P6SM BKN040
     FM271400 32008KT P6SM SCT045=



000
FTUS41 KPHI 270534
TAFMIV
TAF
KMIV 270534Z 2706/2806 VRB02KT P6SM BKN070
     FM271500 32007KT P6SM SCT070
     FM280000 32004KT P6SM FEW200=



000
FTUS41 KPHI 270534
TAFRDG
TAF
KRDG 270534Z 2706/2806 34003KT P6SM BKN040
      TEMPO 2708/2710 5SM -SHSN BKN025 OVC040
     FM271400 32008KT P6SM SCT045=



000
FTUS41 KPHI 270534
TAFPNE
TAF
KPNE 270534Z 2706/2806 36004KT P6SM BKN050
     FM271500 34011KT P6SM FEW040
     FM272200 33006KT P6SM FEW025=



000
FTUS41 KPHI 270534
TAFABE
TAF
KABE 270534Z 2706/2806 36003KT P6SM BKN040
      TEMPO 2708/2711 5SM -SHSN BKN025 OVC040
     FM271400 32007KT P6SM SCT040=



000
FTUS41 KPHI 270534
TAFILG
TAF
KILG 270534Z 2706/2806 36005KT P6SM OVC050
     FM271500 33011KT P6SM FEW050
     FM280000 33007KT P6SM FEW200=



000
FTUS41 KPHI 262320
TAFRDG
TAF
KRDG 262320Z 2700/2724 36003KT P6SM SCT040 OVC080
     FM270800 33003KT P6SM SCT025 OVC040
      TEMPO 2708/2712 5SM -SHSN OVC025
     FM271400 33008KT P6SM BKN040
     FM272300 31006KT P6SM SCT045=



000
FTUS41 KPHI 262320
TAFMIV
TAF
KMIV 262320Z 2700/2724 01004KT P6SM SCT080
     FM270300 VRB02KT P6SM SCT035 BKN080
     FM271000 34006KT P6SM BKN035
     FM272200 32006KT P6SM SCT040=



000
FTUS41 KPHI 262320
TAFTTN
TAF
KTTN 262320Z 2700/2724 36004KT P6SM SCT035 OVC070
     FM270700 35003KT P6SM SCT025 OVC035
      TEMPO 2712/2715 6SM -SHSN OVC025
     FM271500 35008KT P6SM BKN040
     FM272200 35007KT P6SM SCT045=



000
FTUS41 KPHI 262320
TAFILG
TAF
KILG 262320Z 2700/2724 36005KT P6SM SCT040 BKN080
     FM270700 35003KT P6SM SCT030 OVC040
      TEMPO 2712/2714 P6SM -SHSN OVC030
     FM271500 33009KT P6SM BKN040
     FM272200 33007KT P6SM SCT045=



000
FTUS41 KPHI 262320
TAFMIV
TAF
KMIV 262320Z 2700/2724 01004KT P6SM SCT080
     FM270300 VRB02KT P6SM SCT035 BKN080
     FM271000 34006KT P6SM BKN035
     FM272200 32006KT P6SM SCT040=



000
FTUS41 KPHI 262320
TAFABE
TAF
KABE 262320Z 2700/2724 36003KT P6SM SCT040 OVC080
     FM270800 35003KT P6SM SCT025 OVC040
      TEMPO 2708/2712 5SM -SHSN OVC025
     FM271400 32007KT P6SM BKN040
     FM272300 31006KT P6SM SCT045=



000
FTUS41 KPHI 262320
TAFPHL
TAF
KPHL 262320Z 2700/2806 36006KT P6SM SCT040 BKN080
     FM270700 35004KT P6SM SCT025 OVC040
      TEMPO 2712/2715 6SM -SHSN OVC025
     FM271500 33010KT P6SM BKN040
     FM272200 33007KT P6SM SCT045=



000
FTUS41 KPHI 262320
TAFPNE
TAF
KPNE 262320Z 2700/2724 02004KT P6SM SCT040 OVC070
     FM270700 35003KT P6SM SCT025 OVC035
      TEMPO 2712/2715 6SM -SHSN OVC025
     FM271500 34009KT P6SM BKN040
     FM272200 34008KT P6SM SCT045=



000
FTUS41 KPHI 262320
TAFILG
TAF
KILG 262320Z 2700/2724 36005KT P6SM SCT040 BKN080
     FM270700 35003KT P6SM SCT030 OVC040
      TEMPO 2712/2714 P6SM -SHSN OVC030
     FM271500 33009KT P6SM BKN040
     FM272200 33007KT P6SM SCT045=



000
FTUS41 KPHI 262320
TAFACY
TAF
KACY 262320Z 2700/2724 01004KT P6SM SCT080
     FM270300 36004KT P6SM SCT035 BKN080
     FM271000 32010KT P6SM BKN035
     FM272200 32009KT P6SM SCT040=



000
FTUS41 KPHI 262320
TAFACY
TAF
KACY 262320Z 2700/2724 01004KT P6SM SCT080
     FM270300 36004KT P6SM SCT035 BKN080
     FM271000 32010KT P6SM BKN035
     FM272200 32009KT P6SM SCT040=



000
FTUS41 KPHI 262320
TAFRDG
TAF
KRDG 262320Z 2700/2724 36003KT P6SM SCT040 OVC080
     FM270800 33003KT P6SM SCT025 OVC040
      TEMPO 2708/2712 5SM -SHSN OVC025
     FM271400 33008KT P6SM BKN040
     FM272300 31006KT P6SM SCT045=



000
FTUS41 KPHI 262320
TAFABE
TAF
KABE 262320Z 2700/2724 36003KT P6SM SCT040 OVC080
     FM270800 35003KT P6SM SCT025 OVC040
      TEMPO 2708/2712 5SM -SHSN OVC025
     FM271400 32007KT P6SM BKN040
     FM272300 31006KT P6SM SCT045=



000
FTUS41 KPHI 262320
TAFPNE
TAF
KPNE 262320Z 2700/2724 02004KT P6SM SCT040 OVC070
     FM270700 35003KT P6SM SCT025 OVC035
      TEMPO 2712/2715 6SM -SHSN OVC025
     FM271500 34009KT P6SM BKN040
     FM272200 34008KT P6SM SCT045=



000
FTUS41 KPHI 262320
TAFTTN
TAF
KTTN 262320Z 2700/2724 36004KT P6SM SCT035 OVC070
     FM270700 35003KT P6SM SCT025 OVC035
      TEMPO 2712/2715 6SM -SHSN OVC025
     FM271500 35008KT P6SM BKN040
     FM272200 35007KT P6SM SCT045=



000
FTUS41 KPHI 262320
TAFPHL
TAF
KPHL 262320Z 2700/2806 36006KT P6SM SCT040 BKN080
     FM270700 35004KT P6SM SCT025 OVC040
      TEMPO 2712/2715 6SM -SHSN OVC025
     FM271500 33010KT P6SM BKN040
     FM272200 33007KT P6SM SCT045=



000
FTUS41 KPHI 262059 AAA
TAFABE
TAF AMD
KABE 262059Z 2621/2718 03008KT P6SM OVC050
     FM270200 01003KT P6SM BKN040
     FM270800 34004KT 3SM -SN OVC025
     FM271400 30008KT P6SM BKN050=



000
FTUS41 KPHI 262045 AAB
TAFPHL
TAF AMD
KPHL 262045Z 2621/2724 01008KT P6SM BKN050
     FM270700 36003KT P6SM OVC025
     FM271000 34004KT 3SM -SN OVC025
     FM271500 33011KT P6SM BKN050=



000
FTUS41 KPHI 261934 AAA
TAFPHL
TAF AMD
KPHL 261934Z 2620/2724 01010KT P6SM OVC080
     FM262200 02006KT P6SM BKN050
     FM270700 36003KT P6SM OVC025
     FM271000 34004KT 3SM -SN OVC025
     FM271500 33011KT P6SM BKN050=



    US Dept of Commerce
    National Oceanic and Atmospheric Administration
    National Weather Service
    1325 East West Highway
    Silver Spring, MD 20910
    Page Author: NWS Internet Services Team
Disclaimer
Information Quality
Credits
Glossary
Privacy Policy
Freedom of Information Act (FOIA)
About Us
Career Opportunities